sensor_id;sensor_type;location;lat;lon;timestamp;pressure;altitude;pressure_sealevel;temperature
38249;BMP280;24045;51.138;17.126;2023-04-24T00:02:20;99273.54;;;12.41
38249;BMP280;24045;51.138;17.126;2023-04-24T00:17:24;99255.66;;;12.48
38249;BMP280;24045;51.138;17.126;2023-04-24T00:32:26;99239.04;;;12.67
38249;BMP280;24045;51.138;17.126;2023-04-24T00:47:29;99221.69;;;12.78
38249;BMP280;24045;51.138;17.126;2023-04-24T01:02:33;99204.64;;;12.78
38249;BMP280;24045;51.138;17.126;2023-04-24T01:17:37;99207.83;;;12.83
38249;BMP280;24045;51.138;17.126;2023-04-24T01:32:41;99191.52;;;12.85
38249;BMP280;24045;51.138;17.126;2023-04-24T01:47:47;99188.04;;;12.81
38249;BMP280;24045;51.138;17.126;2023-04-24T02:02:51;99178.40;;;12.79
38249;BMP280;24045;51.138;17.126;2023-04-24T02:17:54;99170.41;;;12.81
38249;BMP280;24045;51.138;17.126;2023-04-24T02:32:57;99166.63;;;12.83
38249;BMP280;24045;51.138;17.126;2023-04-24T02:48:00;99152.01;;;12.88
38249;BMP280;24045;51.138;17.126;2023-04-24T03:03:03;99125.91;;;12.84
38249;BMP280;24045;51.138;17.126;2023-04-24T03:18:06;99113.21;;;12.86
38249;BMP280;24045;51.138;17.126;2023-04-24T03:33:09;99104.28;;;12.83
38249;BMP280;24045;51.138;17.126;2023-04-24T03:48:12;99119.27;;;12.73
38249;BMP280;24045;51.138;17.126;2023-04-24T04:03:15;99131.97;;;12.68
38249;BMP280;24045;51.138;17.126;2023-04-24T04:18:19;99134.14;;;12.60
38249;BMP280;24045;51.138;17.126;2023-04-24T04:33:22;99135.36;;;12.52
38249;BMP280;24045;51.138;17.126;2023-04-24T04:48:24;99130.83;;;12.65
38249;BMP280;24045;51.138;17.126;2023-04-24T05:03:27;99127.48;;;13.72
38249;BMP280;24045;51.138;17.126;2023-04-24T05:18:30;99130.64;;;14.09
38249;BMP280;24045;51.138;17.126;2023-04-24T05:33:33;99128.35;;;16.93
38249;BMP280;24045;51.138;17.126;2023-04-24T05:48:36;99127.95;;;18.86
38249;BMP280;24045;51.138;17.126;2023-04-24T06:03:38;99139.69;;;16.90
38249;BMP280;24045;51.138;17.126;2023-04-24T06:18:42;99143.20;;;16.14
38249;BMP280;24045;51.138;17.126;2023-04-24T06:33:45;99147.55;;;16.67
38249;BMP280;24045;51.138;17.126;2023-04-24T06:48:48;99145.77;;;17.03
38249;BMP280;24045;51.138;17.126;2023-04-24T07:03:50;99150.06;;;16.77
38249;BMP280;24045;51.138;17.126;2023-04-24T07:18:53;99147.97;;;16.58
38249;BMP280;24045;51.138;17.126;2023-04-24T07:33:56;99151.71;;;16.85
38249;BMP280;24045;51.138;17.126;2023-04-24T07:49:00;99150.41;;;18.01
38249;BMP280;24045;51.138;17.126;2023-04-24T08:04:15;99150.27;;;19.22
38249;BMP280;24045;51.138;17.126;2023-04-24T08:19:18;99148.40;;;18.91
38249;BMP280;24045;51.138;17.126;2023-04-24T08:34:21;99160.71;;;18.39
38249;BMP280;24045;51.138;17.126;2023-04-24T08:49:25;99175.73;;;17.91
38249;BMP280;24045;51.138;17.126;2023-04-24T09:04:28;99168.79;;;18.33
38249;BMP280;24045;51.138;17.126;2023-04-24T09:19:32;99167.10;;;20.34
38249;BMP280;24045;51.138;17.126;2023-04-24T09:34:35;99164.48;;;21.23
38249;BMP280;24045;51.138;17.126;2023-04-24T09:49:38;99161.14;;;21.75
38249;BMP280;24045;51.138;17.126;2023-04-24T10:04:41;99150.27;;;22.13
38249;BMP280;24045;51.138;17.126;2023-04-24T10:19:57;99130.23;;;21.71
38249;BMP280;24045;51.138;17.126;2023-04-24T10:35:01;99129.93;;;21.39
38249;BMP280;24045;51.138;17.126;2023-04-24T10:50:09;99123.58;;;20.70
38249;BMP280;24045;51.138;17.126;2023-04-24T11:05:14;99137.68;;;20.84
38249;BMP280;24045;51.138;17.126;2023-04-24T11:20:17;99140.88;;;20.21
38249;BMP280;24045;51.138;17.126;2023-04-24T11:35:29;99135.09;;;19.70
38249;BMP280;24045;51.138;17.126;2023-04-24T11:50:38;99136.10;;;20.23
38249;BMP280;24045;51.138;17.126;2023-04-24T12:05:41;99134.22;;;20.96
38249;BMP280;24045;51.138;17.126;2023-04-24T12:20:44;99127.86;;;20.22
38249;BMP280;24045;51.138;17.126;2023-04-24T12:35:51;99121.58;;;19.50
38249;BMP280;24045;51.138;17.126;2023-04-24T12:50:58;99117.70;;;18.82
38249;BMP280;24045;51.138;17.126;2023-04-24T13:06:04;99111.02;;;18.55
38249;BMP280;24045;51.138;17.126;2023-04-24T13:21:08;99099.14;;;18.12
38249;BMP280;24045;51.138;17.126;2023-04-24T13:36:10;99094.72;;;17.46
38249;BMP280;24045;51.138;17.126;2023-04-24T13:51:13;99097.96;;;16.16
38249;BMP280;24045;51.138;17.126;2023-04-24T14:06:17;99097.83;;;15.10
38249;BMP280;24045;51.138;17.126;2023-04-24T14:21:20;99096.92;;;14.90
38249;BMP280;24045;51.138;17.126;2023-04-24T14:36:23;99099.64;;;15.10
38249;BMP280;24045;51.138;17.126;2023-04-24T14:51:25;99105.23;;;15.39
38249;BMP280;24045;51.138;17.126;2023-04-24T15:06:29;99108.52;;;15.37
38249;BMP280;24045;51.138;17.126;2023-04-24T15:21:36;99110.24;;;15.05
38249;BMP280;24045;51.138;17.126;2023-04-24T15:36:38;99123.52;;;14.75
38249;BMP280;24045;51.138;17.126;2023-04-24T15:51:41;99131.45;;;14.26
38249;BMP280;24045;51.138;17.126;2023-04-24T16:06:43;99139.15;;;13.85
38249;BMP280;24045;51.138;17.126;2023-04-24T16:21:46;99144.30;;;13.57
38249;BMP280;24045;51.138;17.126;2023-04-24T16:36:49;99144.97;;;13.41
38249;BMP280;24045;51.138;17.126;2023-04-24T16:51:51;99147.44;;;13.34
38249;BMP280;24045;51.138;17.126;2023-04-24T17:06:54;99141.56;;;13.17
38249;BMP280;24045;51.138;17.126;2023-04-24T17:21:57;99144.39;;;12.95
38249;BMP280;24045;51.138;17.126;2023-04-24T17:37:00;99148.86;;;12.78
38249;BMP280;24045;51.138;17.126;2023-04-24T17:52:04;99138.84;;;12.63
38249;BMP280;24045;51.138;17.126;2023-04-24T18:07:07;99165.94;;;12.46
38249;BMP280;24045;51.138;17.126;2023-04-24T18:22:10;99177.16;;;12.34
38249;BMP280;24045;51.138;17.126;2023-04-24T18:37:12;99220.35;;;12.26
38249;BMP280;24045;51.138;17.126;2023-04-24T18:52:16;99230.20;;;12.16
38249;BMP280;24045;51.138;17.126;2023-04-24T19:07:18;99238.05;;;12.15
38249;BMP280;24045;51.138;17.126;2023-04-24T19:22:23;99235.61;;;12.11
38249;BMP280;24045;51.138;17.126;2023-04-24T19:37:26;99224.25;;;12.06
38249;BMP280;24045;51.138;17.126;2023-04-24T19:52:28;99217.64;;;11.97
38249;BMP280;24045;51.138;17.126;2023-04-24T20:07:31;99213.08;;;11.87
38249;BMP280;24045;51.138;17.126;2023-04-24T20:22:35;99221.15;;;11.74
38249;BMP280;24045;51.138;17.126;2023-04-24T20:37:40;99231.59;;;11.62
38249;BMP280;24045;51.138;17.126;2023-04-24T20:52:48;99234.71;;;11.48
38249;BMP280;24045;51.138;17.126;2023-04-24T21:07:51;99240.56;;;11.36
38249;BMP280;24045;51.138;17.126;2023-04-24T21:22:57;99243.15;;;11.27
38249;BMP280;24045;51.138;17.126;2023-04-24T21:38:00;99255.39;;;11.17
38249;BMP280;24045;51.138;17.126;2023-04-24T21:53:03;99264.92;;;11.15
38249;BMP280;24045;51.138;17.126;2023-04-24T22:08:06;99275.04;;;11.16
38249;BMP280;24045;51.138;17.126;2023-04-24T22:23:09;99276.69;;;11.08
38249;BMP280;24045;51.138;17.126;2023-04-24T22:38:12;99283.35;;;10.88
38249;BMP280;24045;51.138;17.126;2023-04-24T22:53:15;99292.90;;;10.56
38249;BMP280;24045;51.138;17.126;2023-04-24T23:08:17;99301.86;;;10.20
38249;BMP280;24045;51.138;17.126;2023-04-24T23:23:20;99314.77;;;9.94
38249;BMP280;24045;51.138;17.126;2023-04-24T23:38:23;99318.88;;;9.62
38249;BMP280;24045;51.138;17.126;2023-04-24T23:53:25;99313.52;;;9.36
